Monterey, Indiana
Current Conditions -  °F | °C
As of 5:55 PM on Wednesday 22 Oct 2014 (Local Time) from KOXI Reporting Station
Clear Clear  
Wind Chill: 49°   Ceiling: Unl
Heat Index: 49°   Visibility: 5mi
Dew Point: 33°   Wind: 3mph
Humidity: 54%   Direction: 30°NNE
Pressure: 30.27"   Gusts: NA
Location:  41.16°N, 86.48°W
Report Text: KOXI 222255Z AUTO 03003KT 5SM CLR 09/01 A3027 RMK AO1 T00940006
Loading
Personal Weather Stations






























Interactive Weather Map
Tropical Storm Tracking
New forecast layout! Learn more

10-Day Weather Forecast

Advertisements
Track Severe Weather on mobile